createdAt,value
2022-09-03T00:19:37.477Z,14.38
2022-09-03T00:23:33.527Z,14.34
2022-09-03T00:27:24.570Z,14.24
2022-09-03T00:31:15.824Z,14.14
2022-09-03T00:45:06.794Z,13.99
2022-09-03T00:49:02.774Z,13.95
2022-09-03T00:53:06.610Z,13.92
2022-09-03T01:06:21.055Z,13.83
2022-09-03T01:10:19.353Z,13.84
2022-09-03T01:14:12.517Z,13.87
2022-09-03T01:18:41.863Z,13.91
2022-09-03T01:22:50.715Z,13.96
2022-09-03T01:26:45.141Z,14.04
2022-09-03T01:30:15.494Z,14.12
2022-09-03T01:34:08.444Z,14.16
2022-09-03T01:38:18.497Z,14.21
2022-09-03T01:42:12.545Z,14.25
2022-09-03T01:46:17.904Z,14.31
2022-09-03T01:50:13.877Z,14.31
2022-09-03T01:54:20.847Z,14.33
2022-09-03T01:57:35.382Z,14.37
2022-09-03T02:06:08.185Z,14.42
2022-09-03T02:10:01.158Z,14.42
2022-09-03T02:13:51.234Z,14.45
2022-09-03T02:17:42.081Z,14.50
2022-09-03T02:21:31.853Z,14.50
2022-09-03T02:25:21.895Z,14.47
2022-09-03T02:29:11.664Z,14.42
2022-09-03T02:32:43.777Z,14.36
2022-09-03T02:36:35.016Z,14.28
2022-09-03T02:40:23.609Z,14.22
2022-09-03T02:44:15.114Z,14.17
2022-09-03T02:48:05.116Z,14.14
2022-09-03T02:51:58.509Z,14.10
2022-09-03T02:55:50.006Z,14.06
2022-09-03T03:06:26.141Z,14.03
2022-09-03T03:08:55.302Z,13.95
2022-09-03T03:31:20.223Z,14.07
2022-09-03T03:35:12.429Z,14.06
2022-09-03T03:43:36.825Z,14.15
2022-09-03T03:47:32.671Z,14.21
2022-09-03T03:51:46.757Z,14.23
2022-09-03T03:55:36.832Z,14.22
2022-09-03T04:04:56.440Z,14.13
2022-09-03T04:08:51.670Z,14.21
2022-09-03T04:12:23.621Z,14.25
2022-09-03T04:16:14.590Z,14.29
2022-09-03T04:20:06.427Z,14.32
2022-09-03T04:23:56.113Z,14.35
2022-09-03T04:27:46.144Z,14.34
2022-09-03T04:31:16.645Z,14.30
2022-09-03T04:35:06.758Z,14.25
2022-09-03T04:38:56.695Z,14.22
2022-09-03T04:42:26.402Z,14.20
2022-09-03T04:46:18.397Z,14.12
2022-09-03T04:50:09.162Z,14.00
2022-09-03T04:54:04.561Z,13.93
2022-09-03T04:57:54.833Z,13.88
2022-09-03T05:16:17.277Z,13.74
2022-09-03T05:24:56.077Z,13.78
2022-09-03T05:28:49.144Z,13.82
2022-09-03T05:32:44.869Z,13.84
2022-09-03T05:38:43.966Z,13.95
2022-09-03T05:41:35.170Z,14.02
2022-09-03T05:55:24.356Z,14.19
2022-09-03T05:59:16.697Z,14.25
2022-09-03T06:03:09.058Z,14.31
2022-09-03T06:07:00.328Z,14.30
2022-09-03T06:10:49.884Z,14.27
2022-09-03T06:14:23.614Z,14.26
2022-09-03T06:18:12.688Z,14.28
2022-09-03T06:20:58.392Z,14.28
2022-09-03T06:24:22.264Z,14.31
2022-09-03T06:28:14.429Z,14.37
2022-09-03T06:31:43.549Z,14.37
2022-09-03T06:39:33.382Z,14.38
2022-09-03T06:43:22.118Z,14.46
2022-09-03T06:47:10.846Z,14.47
2022-09-03T06:50:59.753Z,14.51
2022-09-03T06:54:48.682Z,14.54
2022-09-03T06:58:37.592Z,14.61
2022-09-03T07:02:26.831Z,14.69
2022-09-03T07:06:15.837Z,14.77
2022-09-03T07:10:04.838Z,14.84
2022-09-03T07:13:53.743Z,14.93
2022-09-03T07:17:42.610Z,14.97
2022-09-03T07:21:31.194Z,14.98
2022-09-03T07:25:19.486Z,15.02
2022-09-03T07:28:28.699Z,15.05
2022-09-03T07:32:23.129Z,15.07
2022-09-03T07:36:11.365Z,15.11
2022-09-03T07:39:40.477Z,15.13
2022-09-03T07:43:29.107Z,15.13
2022-09-03T07:47:08.803Z,15.10
2022-09-03T07:50:57.330Z,14.92
2022-09-03T07:54:45.949Z,14.79
2022-09-03T07:58:36.558Z,14.77
2022-09-03T08:02:05.735Z,14.84
2022-09-03T08:05:54.291Z,14.96
2022-09-03T08:09:42.838Z,15.01
2022-09-03T08:13:31.763Z,14.96
2022-09-03T08:17:20.294Z,14.94
2022-09-03T08:21:09.290Z,14.96
2022-09-03T08:24:58.172Z,15.06
2022-09-03T08:28:34.468Z,15.17
2022-09-03T08:32:23.314Z,15.30
2022-09-03T08:36:11.850Z,15.48
2022-09-03T08:39:20.827Z,15.66
2022-09-03T08:42:29.985Z,15.76
2022-09-03T08:46:18.636Z,15.86
2022-09-03T08:50:10.259Z,16.01
2022-09-03T08:53:45.182Z,16.04
2022-09-03T08:57:33.414Z,16.05
2022-09-03T09:01:03.206Z,16.04
2022-09-03T09:04:37.897Z,16.07
2022-09-03T09:08:34.704Z,16.10
2022-09-03T09:12:14.377Z,16.07
2022-09-03T09:16:09.179Z,16.15
2022-09-03T09:19:59.039Z,16.31
2022-09-03T09:23:45.677Z,16.34
2022-09-03T09:27:16.116Z,16.32
2022-09-03T09:31:04.572Z,16.31
2022-09-03T09:34:53.423Z,16.31
2022-09-03T09:38:31.295Z,16.18
2022-09-03T09:42:00.362Z,16.09
2022-09-03T09:45:28.256Z,16.01
2022-09-03T09:48:59.974Z,15.85
2022-09-03T09:52:48.161Z,15.77
2022-09-03T09:55:58.408Z,15.74
2022-09-03T09:59:08.781Z,15.73
2022-09-03T10:03:09.874Z,15.75
2022-09-03T10:07:16.200Z,15.80
2022-09-03T10:11:05.020Z,15.84
2022-09-03T10:14:53.871Z,15.90
2022-09-03T10:18:42.394Z,16.01
2022-09-03T10:22:32.356Z,16.09
2022-09-03T10:26:36.141Z,16.07
2022-09-03T10:30:24.990Z,16.22
2022-09-03T10:34:16.604Z,16.44
2022-09-03T10:38:03.878Z,16.64
2022-09-03T10:41:58.706Z,16.79
2022-09-03T10:45:58.955Z,17.00
2022-09-03T10:49:46.461Z,17.25
2022-09-03T10:53:35.354Z,17.54
2022-09-03T10:57:03.519Z,17.75
2022-09-03T11:00:39.879Z,17.97
2022-09-03T11:04:59.097Z,18.13
2022-09-03T11:08:56.646Z,18.29
2022-09-03T11:12:53.171Z,18.14
2022-09-03T11:16:45.224Z,18.10
2022-09-03T11:20:34.391Z,18.03
2022-09-03T11:24:23.215Z,18.01
2022-09-03T11:28:24.151Z,18.07
2022-09-03T11:32:14.041Z,18.12
2022-09-03T11:35:42.543Z,18.06
2022-09-03T11:39:31.543Z,18.07
2022-09-03T11:43:26.684Z,18.21
2022-09-03T11:47:23.069Z,18.32
2022-09-03T11:51:20.731Z,18.30
2022-09-03T11:55:24.485Z,18.34
2022-09-03T11:59:11.802Z,18.40
2022-09-03T12:03:06.486Z,18.45
2022-09-03T12:07:20.869Z,18.52
2022-09-03T12:11:12.520Z,18.53
2022-09-03T12:15:06.092Z,18.62
2022-09-03T12:18:54.904Z,18.87
2022-09-03T12:22:43.857Z,18.96
2022-09-03T12:26:32.784Z,18.89
2022-09-03T12:30:21.774Z,18.82
2022-09-03T12:34:11.084Z,18.74
2022-09-03T12:38:09.309Z,18.72
2022-09-03T12:42:05.441Z,18.87
2022-09-03T12:46:10.461Z,18.83
2022-09-03T12:49:59.878Z,18.72
2022-09-03T12:53:49.695Z,18.75
2022-09-03T12:57:18.385Z,18.96
2022-09-03T13:01:07.700Z,19.21
2022-09-03T13:04:56.642Z,19.36
2022-09-03T13:08:48.650Z,19.46
2022-09-03T13:12:37.525Z,19.45
2022-09-03T13:16:24.798Z,19.40
2022-09-03T13:20:28.592Z,19.38
2022-09-03T13:24:38.397Z,19.34
2022-09-03T13:28:39.345Z,19.24
2022-09-03T13:32:36.797Z,19.12
2022-09-03T13:50:48.963Z,18.81
2022-09-03T13:54:52.891Z,18.80
2022-09-03T13:58:41.735Z,18.83
2022-09-03T14:02:42.666Z,18.81
2022-09-03T14:06:46.516Z,18.70
2022-09-03T14:10:44.320Z,18.61
2022-09-03T14:14:43.935Z,18.51
2022-09-03T14:18:50.981Z,18.44
2022-09-03T14:22:51.815Z,18.40
2022-09-03T14:26:40.713Z,18.38
2022-09-03T14:30:35.618Z,18.43
2022-09-03T14:34:33.489Z,18.51
2022-09-03T14:38:25.895Z,18.57
2022-09-03T14:42:17.940Z,18.63
2022-09-03T14:46:18.994Z,18.67
2022-09-03T14:50:38.358Z,18.65
2022-09-03T14:54:28.472Z,18.57
2022-09-03T14:58:23.341Z,18.52
2022-09-03T15:02:15.055Z,18.46
2022-09-03T15:06:30.939Z,18.30
2022-09-03T15:10:35.206Z,18.24
2022-09-03T15:14:22.308Z,18.23
2022-09-03T15:18:02.930Z,18.19
2022-09-03T15:22:07.016Z,18.09
2022-09-03T15:26:04.806Z,18.04
2022-09-03T15:30:14.588Z,18.07
2022-09-03T15:34:09.247Z,18.12
2022-09-03T15:37:58.079Z,18.17
2022-09-03T15:41:46.955Z,18.19
2022-09-03T15:45:35.964Z,18.20
2022-09-03T15:49:28.255Z,18.20
2022-09-03T15:53:24.813Z,18.15
2022-09-03T15:57:16.963Z,18.12
2022-09-03T16:01:09.087Z,18.08
2022-09-03T16:05:01.127Z,18.03
2022-09-03T16:08:53.059Z,18.02
2022-09-03T16:12:40.475Z,18.02
2022-09-03T16:16:38.710Z,18.01
2022-09-03T16:20:27.790Z,18.00
2022-09-03T16:24:28.765Z,17.94
2022-09-03T16:28:23.593Z,17.89
2022-09-03T16:32:12.477Z,17.90
2022-09-03T16:36:10.367Z,17.89
2022-09-03T16:40:17.068Z,17.89
2022-09-03T16:44:33.454Z,17.91
2022-09-03T16:48:22.356Z,17.90
2022-09-03T16:52:37.816Z,17.87
2022-09-03T16:56:28.867Z,17.84
2022-09-03T17:00:35.917Z,17.75
2022-09-03T17:04:32.077Z,17.66
2022-09-03T17:08:34.434Z,17.59
2022-09-03T17:12:29.159Z,17.55
2022-09-03T17:16:29.837Z,17.53
2022-09-03T17:20:36.631Z,17.50
2022-09-03T17:24:32.943Z,17.47
2022-09-03T17:28:25.470Z,17.44
2022-09-03T17:32:29.472Z,17.33
2022-09-03T17:36:18.387Z,17.17
2022-09-03T17:40:10.276Z,17.00
2022-09-03T17:43:55.854Z,16.87
2022-09-03T17:47:59.791Z,16.78
2022-09-03T17:52:12.638Z,16.70
2022-09-03T17:56:10.452Z,16.64
2022-09-03T18:00:17.853Z,16.62
2022-09-03T18:04:21.857Z,16.63
2022-09-03T18:08:32.098Z,16.68
2022-09-03T18:12:21.017Z,16.70
2022-09-03T18:16:10.183Z,16.71
2022-09-03T18:20:09.449Z,16.68
2022-09-03T18:24:07.210Z,16.65
2022-09-03T18:28:00.181Z,16.70
2022-09-03T18:31:47.280Z,16.78
2022-09-03T18:35:34.239Z,16.83
2022-09-03T18:39:24.245Z,16.83
2022-09-03T18:43:00.328Z,16.75
2022-09-03T18:48:01.099Z,16.71
2022-09-03T18:51:03.563Z,16.76
2022-09-03T18:55:20.892Z,16.84
2022-09-03T18:59:34.926Z,16.94
2022-09-03T19:03:23.410Z,16.98
2022-09-03T19:07:19.579Z,17.00
2022-09-03T19:11:30.951Z,16.99
2022-09-03T19:15:23.951Z,16.97
2022-09-03T19:19:19.981Z,16.92
2022-09-03T19:23:15.840Z,16.84
2022-09-03T19:27:29.961Z,16.78
2022-09-03T19:31:21.802Z,16.72
2022-09-03T19:35:13.513Z,16.66
2022-09-03T19:39:12.705Z,16.60
2022-09-03T19:43:01.782Z,16.56
2022-09-03T19:46:53.507Z,16.46
2022-09-03T19:51:01.775Z,16.33
2022-09-03T19:54:36.551Z,16.29
2022-09-03T19:58:41.918Z,16.30
2022-09-03T20:02:33.008Z,16.27
2022-09-03T20:05:59.553Z,16.21
2022-09-03T20:09:46.442Z,16.18
2022-09-03T20:13:35.450Z,16.20
2022-09-03T20:17:48.440Z,16.28
2022-09-03T20:22:01.527Z,16.40
2022-09-03T20:25:53.221Z,16.47
2022-09-03T20:29:46.233Z,16.48
2022-09-03T20:33:38.291Z,16.51
2022-09-03T20:37:38.119Z,16.55
2022-09-03T20:41:42.373Z,16.56
2022-09-03T20:45:42.393Z,16.55
2022-09-03T20:49:51.252Z,16.52
2022-09-03T20:53:47.352Z,16.49
2022-09-03T20:57:51.180Z,16.43
2022-09-03T21:01:46.005Z,16.34
2022-09-03T21:05:46.156Z,16.25
2022-09-03T21:09:52.950Z,16.17
2022-09-03T21:13:54.273Z,16.08
2022-09-03T21:18:03.748Z,15.97
2022-09-03T21:21:36.319Z,15.87
2022-09-03T21:25:28.539Z,15.77
2022-09-03T21:29:22.377Z,15.66
2022-09-03T21:33:33.413Z,15.58
2022-09-03T21:36:55.011Z,15.52
2022-09-03T21:40:43.861Z,15.41
2022-09-03T21:44:47.540Z,15.32
2022-09-03T21:48:44.934Z,15.23
2022-09-03T21:52:38.878Z,15.18
2022-09-03T21:56:13.194Z,15.16
2022-09-03T22:00:10.864Z,15.13
2022-09-03T22:03:43.377Z,15.11
2022-09-03T22:07:17.041Z,15.10
2022-09-03T22:11:14.531Z,15.08
2022-09-03T22:15:14.953Z,15.06
2022-09-03T22:19:06.261Z,15.07
2022-09-03T22:22:41.510Z,15.08
2022-09-03T22:26:30.078Z,15.08
2022-09-03T22:30:08.668Z,15.07
2022-09-03T22:33:23.339Z,15.07
2022-09-03T22:37:14.497Z,15.07
2022-09-03T22:40:44.307Z,15.07
2022-09-03T22:44:23.559Z,15.05
2022-09-03T22:47:54.471Z,15.02
2022-09-03T22:51:32.524Z,14.99
2022-09-03T22:55:02.081Z,14.96
2022-09-03T22:58:11.062Z,14.92
2022-09-03T23:01:20.918Z,14.91
2022-09-03T23:04:13.130Z,14.90
2022-09-03T23:07:22.028Z,14.89
2022-09-03T23:10:13.082Z,14.87
2022-09-03T23:13:17.688Z,14.83
2022-09-03T23:16:14.291Z,14.81
2022-09-03T23:18:46.075Z,14.79
2022-09-03T23:21:41.097Z,14.75
2022-09-03T23:24:42.375Z,14.71
2022-09-03T23:27:43.894Z,14.66
2022-09-03T23:30:54.454Z,14.62
2022-09-03T23:33:51.037Z,14.58
2022-09-03T23:41:06.287Z,14.40
2022-09-03T23:44:00.611Z,14.31
2022-09-03T23:47:36.725Z,14.28
2022-09-03T23:50:38.205Z,14.26
2022-09-03T23:54:02.365Z,14.24
2022-09-03T23:57:50.035Z,14.23
